Time;durP1;ratioP1;P1;durP2;ratioP2;P2;SDS_P1;SDS_P2;PMS_P1;PMS_P2;Temp;Humidity;BMP_temperature;BMP_pressure;BME280_temperature;BME280_humidity;BME280_pressure;Samples;Min_cycle;Max_cycle;Signal;HPM_P1;HPM_P2
2022/05/06 00:02:14;;;;;;;7.47;3.35;;;;;;;8.36;100.00;97283.53;5067354;28;20089;-74
2022/05/06 00:04:43;;;;;;;6.57;2.95;;;;;;;8.24;100.00;97280.66;5065831;28;20438;-70
2022/05/06 00:07:11;;;;;;;5.25;3.13;;;;;;;8.12;100.00;97282.41;5067578;28;20514;-74
2022/05/06 00:09:37;;;;;;;6.15;3.15;;;;;;;8.02;100.00;97280.19;5069704;28;20040;-73
2022/05/06 00:12:06;;;;;;;8.40;3.05;;;;;;;8.02;100.00;97277.53;5067515;28;20040;-71
2022/05/06 00:14:32;;;;;;;8.73;3.13;;;;;;;7.87;100.00;97276.16;5068185;28;20032;-74
2022/05/06 00:16:57;;;;;;;6.72;2.83;;;;;;;7.75;100.00;97282.13;5069565;28;20051;-74
2022/05/06 00:19:23;;;;;;;7.05;3.10;;;;;;;7.81;100.00;97275.16;5068006;28;20368;-70
2022/05/06 00:21:48;;;;;;;12.27;2.88;;;;;;;7.89;100.00;97282.09;5069431;28;20518;-69
2022/05/06 00:24:13;;;;;;;5.28;2.50;;;;;;;7.87;100.00;97284.97;5066969;28;20065;-71
2022/05/06 00:26:41;;;;;;;5.78;2.85;;;;;;;7.89;100.00;97276.75;5066563;28;20044;-70
2022/05/06 00:29:06;;;;;;;6.43;2.88;;;;;;;7.90;100.00;97279.19;5068239;28;20043;-69
2022/05/06 00:31:33;;;;;;;6.32;2.80;;;;;;;7.97;100.00;97287.19;5067418;28;20174;-75
2022/05/06 00:33:58;;;;;;;6.70;2.58;;;;;;;7.92;100.00;97287.81;5071074;28;20048;-70
2022/05/06 00:36:23;;;;;;;8.02;2.50;;;;;;;7.95;100.00;97276.72;5065347;28;20510;-74
2022/05/06 00:38:49;;;;;;;5.88;2.55;;;;;;;7.95;100.00;97273.25;5068957;28;20734;-71
2022/05/06 00:41:14;;;;;;;4.57;2.65;;;;;;;7.99;100.00;97282.44;5067256;28;20165;-69
2022/05/06 00:43:41;;;;;;;6.60;2.35;;;;;;;8.01;100.00;97281.19;5068651;28;20050;-72
2022/05/06 00:46:15;;;;;;;9.68;2.47;;;;;;;8.00;100.00;97276.91;5071412;28;20051;-70
2022/05/06 00:48:44;;;;;;;6.78;2.47;;;;;;;7.99;100.00;97272.59;5053257;28;20117;-70
2022/05/06 00:51:10;;;;;;;6.10;2.30;;;;;;;8.00;100.00;97276.91;5066856;28;20087;-71
2022/05/06 00:53:36;;;;;;;7.07;2.00;;;;;;;7.98;100.00;97286.13;5067945;28;20529;-71
2022/05/06 00:56:08;;;;;;;7.18;2.20;;;;;;;7.96;100.00;97278.38;5068646;28;20044;-72
2022/05/06 00:58:33;;;;;;;4.00;1.85;;;;;;;7.97;100.00;97289.84;5074289;28;20042;-72
2022/05/06 01:01:01;;;;;;;5.35;2.00;;;;;;;7.96;100.00;97275.69;5066931;28;20052;-69
2022/05/06 01:03:32;;;;;;;4.00;2.03;;;;;;;7.95;100.00;97274.06;5069109;28;20103;-71
2022/05/06 01:05:58;;;;;;;4.07;1.73;;;;;;;7.94;100.00;97275.09;5073487;28;20040;-72
2022/05/06 01:08:24;;;;;;;4.47;1.85;;;;;;;7.93;100.00;97278.78;5067585;28;20523;-72
2022/05/06 01:10:51;;;;;;;7.07;1.88;;;;;;;7.92;100.00;97277.13;5070503;28;20040;-69
2022/05/06 01:13:21;;;;;;;5.85;2.00;;;;;;;7.90;100.00;97287.19;5068328;28;20044;-71
2022/05/06 01:15:48;;;;;;;6.28;1.83;;;;;;;7.88;100.00;97288.44;5067685;28;20050;-73
2022/05/06 01:18:22;;;;;;;6.43;1.90;;;;;;;7.85;100.00;97281.69;5070619;28;20044;-71
2022/05/06 01:20:52;;;;;;;4.57;2.42;;;;;;;7.84;100.00;97280.03;5068232;28;20040;-76
2022/05/06 01:23:20;;;;;;;3.10;1.42;;;;;;;7.83;100.00;97283.75;5068003;28;20044;-70
2022/05/06 01:25:46;;;;;;;3.20;1.73;;;;;;;7.72;100.00;97287.06;5070167;28;20044;-77
2022/05/06 01:28:13;;;;;;;6.93;1.67;;;;;;;7.72;100.00;97287.06;5065984;28;20529;-72
2022/05/06 01:30:45;;;;;;;3.40;1.67;;;;;;;7.60;100.00;97289.56;5068183;28;20398;-70
2022/05/06 01:33:21;;;;;;;5.72;1.85;;;;;;;7.52;100.00;97297.75;5067274;28;20036;-72
2022/05/06 01:35:53;;;;;;;5.22;1.80;;;;;;;7.53;100.00;97299.41;5067028;28;20402;-72
2022/05/06 01:38:24;;;;;;;5.10;1.90;;;;;;;7.49;100.00;97288.34;5072000;28;20083;-73
2022/05/06 01:40:56;;;;;;;4.10;1.65;;;;;;;7.48;100.00;97291.25;5074487;28;20032;-69
2022/05/06 01:43:31;;;;;;;4.45;1.67;;;;;;;7.46;100.00;97296.75;5073402;28;20036;-71
2022/05/06 01:45:57;;;;;;;6.07;1.70;;;;;;;7.44;100.00;97293.47;5067578;28;20133;-72
2022/05/06 01:48:22;;;;;;;4.97;1.60;;;;;;;7.36;100.00;97295.53;5067183;28;20043;-75
2022/05/06 01:50:53;;;;;;;4.25;1.50;;;;;;;7.29;100.00;97292.06;5067090;28;20035;-70
2022/05/06 01:53:19;;;;;;;4.90;1.65;;;;;;;7.21;100.00;97293.09;5069735;28;20174;-71
2022/05/06 01:55:48;;;;;;;6.60;1.88;;;;;;;7.07;100.00;97294.13;5066454;28;20093;-71
2022/05/06 01:58:15;;;;;;;5.45;1.65;;;;;;;7.08;100.00;97296.63;5063312;28;20036;-73
2022/05/06 02:00:49;;;;;;;6.88;2.10;;;;;;;7.12;100.00;97297.00;5065080;28;20033;-73
2022/05/06 02:06:09;;;;;;;3.50;1.40;;;;;;;7.09;100.00;97286.78;5072088;28;20043;-69
2022/05/06 02:08:38;;;;;;;3.53;1.52;;;;;;;7.01;100.00;97284.34;5065713;28;20044;-72
2022/05/06 02:11:06;;;;;;;4.38;1.77;;;;;;;6.96;100.00;97282.28;5067295;28;20526;-70
2022/05/06 02:13:34;;;;;;;4.47;1.38;;;;;;;6.94;100.00;97289.66;5067030;28;20032;-70
2022/05/06 02:16:38;;;;;;;5.90;1.33;;;;;;;6.86;100.00;97289.88;5056020;28;20068;-72
2022/05/06 02:19:39;;;;;;;4.17;1.87;;;;;;;6.72;100.00;97282.91;5043626;28;20086;-70
2022/05/06 02:22:27;;;;;;;3.90;1.48;;;;;;;6.61;100.00;97287.78;5073672;28;20051;-72
2022/05/06 02:25:13;;;;;;;4.90;2.28;;;;;;;6.60;100.00;97288.00;5042086;28;20062;-72
2022/05/06 02:27:45;;;;;;;6.68;1.73;;;;;;;6.66;100.00;97284.53;5066428;28;20111;-72
2022/05/06 02:33:15;;;;;;;3.35;1.58;;;;;;;6.67;100.00;97284.31;5047329;28;20718;-72
2022/05/06 02:35:49;;;;;;;3.72;1.60;;;;;;;6.59;100.00;97291.69;5061471;28;20047;-73
2022/05/06 02:38:23;;;;;;;4.57;1.60;;;;;;;6.54;100.00;97292.31;5044324;28;20458;-73
2022/05/06 02:40:50;;;;;;;5.15;1.73;;;;;;;6.57;100.00;97291.88;5055315;28;20048;-74
2022/05/06 02:43:17;;;;;;;3.22;1.60;;;;;;;6.59;100.00;97287.16;5043154;28;20045;-74
2022/05/06 02:45:45;;;;;;;6.00;1.98;;;;;;;6.57;100.00;97283.91;5046114;28;20041;-73
2022/05/06 02:48:11;;;;;;;5.50;1.70;;;;;;;6.55;100.00;97293.94;5046606;28;20218;-72
2022/05/06 02:50:37;;;;;;;3.95;1.60;;;;;;;6.44;100.00;97291.84;5063378;28;20551;-75
2022/05/06 02:53:04;;;;;;;2.95;1.60;;;;;;;6.43;100.00;97293.69;5049312;28;20057;-74
2022/05/06 02:55:30;;;;;;;3.20;1.55;;;;;;;6.37;100.00;97288.34;5049279;28;20083;-70
2022/05/06 02:57:57;;;;;;;7.68;1.98;;;;;;;6.37;100.00;97291.03;5037535;28;20041;-72
2022/05/06 03:00:24;;;;;;;3.72;1.60;;;;;;;6.36;100.00;97290.19;5051230;28;20040;-72
2022/05/06 03:02:52;;;;;;;3.17;1.42;;;;;;;6.39;100.00;97292.47;5048906;28;20478;-71
2022/05/06 03:05:18;;;;;;;3.72;1.55;;;;;;;6.27;100.00;97288.75;5048821;28;20492;-72
2022/05/06 03:07:44;;;;;;;5.65;1.70;;;;;;;6.02;100.00;97291.13;5058097;28;20104;-71
2022/05/06 03:10:11;;;;;;;4.68;1.58;;;;;;;5.95;100.00;97289.47;5046184;28;21669;-74
2022/05/06 03:12:38;;;;;;;3.72;1.55;;;;;;;6.02;100.00;97285.00;5049582;28;20032;-72
2022/05/06 03:15:13;;;;;;;2.38;1.33;;;;;;;5.99;100.00;97283.59;5053664;28;20033;-73
2022/05/06 03:17:47;;;;;;;3.53;1.35;;;;;;;6.01;100.00;97284.19;5048270;28;20049;-75
2022/05/06 03:20:13;;;;;;;2.70;1.40;;;;;;;6.01;100.00;97283.38;5054324;28;20040;-72
2022/05/06 03:22:46;;;;;;;3.88;1.40;;;;;;;6.05;100.00;97284.59;5049071;28;20412;-69
2022/05/06 03:25:12;;;;;;;5.32;1.50;;;;;;;6.05;100.00;97277.44;5050904;28;20140;-71
2022/05/06 03:30:27;;;;;;;3.08;1.35;;;;;;;6.08;100.00;97279.72;5048002;28;20594;-72
2022/05/06 03:32:59;;;;;;;2.78;1.40;;;;;;;6.07;100.00;97274.59;5077281;28;20703;-70
2022/05/06 03:35:29;;;;;;;4.25;1.52;;;;;;;6.09;100.00;97278.69;5070801;28;20043;-70
2022/05/06 03:37:56;;;;;;;3.05;1.50;;;;;;;6.04;100.00;97273.16;5076490;28;20048;-74
2022/05/06 03:40:23;;;;;;;3.67;1.30;;;;;;;6.09;100.00;97269.91;5069365;28;20339;-69
2022/05/06 03:42:49;;;;;;;4.22;2.10;;;;;;;6.05;100.00;97279.28;5070777;28;20036;-72
2022/05/06 03:45:16;;;;;;;2.88;1.50;;;;;;;5.96;100.00;97273.34;5067982;28;20052;-70
2022/05/06 03:47:44;;;;;;;3.50;1.50;;;;;;;5.99;100.00;97274.75;5077088;28;20039;-74
2022/05/06 03:52:56;;;;;;;3.20;1.65;;;;;;;6.02;100.00;97269.06;5067912;28;20060;-72
2022/05/06 03:55:23;;;;;;;2.83;1.30;;;;;;;5.98;100.00;97267.81;5067880;28;20134;-72
2022/05/06 03:57:49;;;;;;;4.82;1.33;;;;;;;6.00;100.00;97268.47;5067997;28;20459;-72
2022/05/06 04:00:19;;;;;;;4.30;1.27;;;;;;;5.95;100.00;97269.03;5069942;28;20095;-69
2022/05/06 04:02:53;;;;;;;3.15;1.48;;;;;;;5.93;100.00;97273.75;5071376;28;20068;-73
2022/05/06 04:05:23;;;;;;;3.95;1.23;;;;;;;5.96;100.00;97276.00;5085867;27;20147;-69
2022/05/06 04:07:50;;;;;;;4.07;1.52;;;;;;;6.01;100.00;97273.56;5069884;28;20035;-71
2022/05/06 04:10:16;;;;;;;3.30;1.48;;;;;;;6.03;100.00;97276.84;5066109;28;20378;-69
2022/05/06 04:12:42;;;;;;;4.68;1.75;;;;;;;6.00;100.00;97282.56;5070000;28;20051;-70
2022/05/06 04:15:09;;;;;;;5.63;1.30;;;;;;;5.97;100.00;97276.81;5065415;28;20474;-71
2022/05/06 04:17:36;;;;;;;2.83;1.27;;;;;;;6.07;100.00;97285.22;5068981;28;20040;-69
2022/05/06 04:25:34;;;;;;;3.35;1.50;;;;;;;6.11;100.00;97286.47;5076511;28;20036;-74
2022/05/06 04:28:00;;;;;;;3.67;1.30;;;;;;;6.12;100.00;97286.25;5075733;28;20036;-72
2022/05/06 04:30:25;;;;;;;4.22;1.27;;;;;;;6.13;100.00;97298.53;5067981;28;20039;-72
2022/05/06 04:33:07;;;;;;;4.47;1.58;;;;;;;6.19;100.00;97296.91;5067118;28;20457;-70
2022/05/06 04:35:34;;;;;;;4.60;1.48;;;;;;;6.23;100.00;97302.66;5082715;27;20035;-71
2022/05/06 04:38:02;;;;;;;4.35;1.30;;;;;;;6.26;100.00;97303.06;5069583;28;20046;-76
2022/05/06 04:40:33;;;;;;;3.65;1.73;;;;;;;6.26;100.00;97303.06;5067670;28;20503;-70
2022/05/06 04:43:00;;;;;;;3.67;1.95;;;;;;;6.23;100.00;97303.47;5067657;28;20069;-70
2022/05/06 04:45:26;;;;;;;4.40;2.20;;;;;;;6.35;100.00;97311.69;5067496;28;20674;-74
2022/05/06 04:48:02;;;;;;;4.10;1.98;;;;;;;6.40;100.00;97311.91;5073648;28;20059;-70
2022/05/06 04:50:29;;;;;;;4.82;1.65;;;;;;;6.50;100.00;97316.81;5071641;28;20408;-72
2022/05/06 04:52:54;;;;;;;3.53;1.70;;;;;;;6.54;100.00;97318.88;5069625;28;20305;-71
2022/05/06 04:55:20;;;;;;;6.15;2.05;;;;;;;6.60;100.00;97317.25;5064996;28;20344;-71
2022/05/06 04:57:45;;;;;;;4.18;1.85;;;;;;;6.68;100.00;97322.38;5053721;28;20506;-71
2022/05/06 05:00:12;;;;;;;6.03;1.65;;;;;;;6.78;100.00;97322.81;5068273;28;20032;-69
2022/05/06 05:02:43;;;;;;;6.15;2.40;;;;;;;6.91;100.00;97317.47;5067280;28;20040;-72
2022/05/06 05:05:09;;;;;;;4.25;1.70;;;;;;;6.99;100.00;97335.91;5071765;28;20116;-69
2022/05/06 05:07:35;;;;;;;6.03;1.67;;;;;;;7.12;100.00;97329.78;5068011;28;20150;-70
2022/05/06 05:10:02;;;;;;;5.47;1.80;;;;;;;7.30;100.00;97336.31;5069006;28;20113;-71
2022/05/06 05:12:28;;;;;;;3.08;1.25;;;;;;;7.43;100.00;97333.63;5069967;28;20033;-74
2022/05/06 05:14:54;;;;;;;7.47;1.90;;;;;;;7.54;100.00;97335.66;5075656;28;20154;-72
2022/05/06 05:17:23;;;;;;;6.07;1.80;;;;;;;7.60;100.00;97340.16;5068989;28;20036;-68
2022/05/06 05:19:49;;;;;;;6.90;1.73;;;;;;;7.65;100.00;97335.03;5070724;28;20120;-71
2022/05/06 05:22:15;;;;;;;5.15;1.98;;;;;;;7.72;100.00;97340.34;5069554;28;20037;-73
2022/05/06 05:24:45;;;;;;;4.38;1.70;;;;;;;7.80;100.00;97342.78;5068150;28;20109;-71
2022/05/06 05:27:11;;;;;;;5.40;1.50;;;;;;;7.85;100.00;97332.31;5066395;28;20037;-71
2022/05/06 05:29:37;;;;;;;4.25;1.60;;;;;;;7.96;100.00;97341.50;5066477;28;20438;-71
2022/05/06 05:32:03;;;;;;;5.68;2.08;;;;;;;8.04;100.00;97342.09;5066168;28;20048;-75
2022/05/06 05:34:29;;;;;;;6.55;1.77;;;;;;;8.12;100.00;97342.88;5071888;28;20068;-69
2022/05/06 05:36:55;;;;;;;4.80;1.45;;;;;;;8.22;100.00;97341.41;5065961;28;20136;-71
2022/05/06 05:39:21;;;;;;;3.80;1.33;;;;;;;8.29;100.00;97347.53;5069446;28;20556;-68
2022/05/06 05:41:50;;;;;;;6.32;1.40;;;;;;;8.39;100.00;97352.44;5064928;28;20535;-71
2022/05/06 05:49:51;;;;;;;3.05;1.60;;;;;;;8.70;100.00;97354.31;5067993;28;20040;-70
2022/05/06 05:52:17;;;;;;;5.97;1.80;;;;;;;8.79;100.00;97354.88;5063223;28;20043;-73
2022/05/06 05:54:44;;;;;;;6.45;1.70;;;;;;;8.82;100.00;97352.59;5065370;28;20072;-75
2022/05/06 05:57:09;;;;;;;5.50;1.67;;;;;;;8.90;100.00;97355.00;5065902;28;20694;-68
2022/05/06 05:59:37;;;;;;;8.85;1.60;;;;;;;9.00;100.00;97359.06;5068189;28;20043;-73
2022/05/06 06:02:03;;;;;;;3.20;1.67;;;;;;;9.09;100.00;97353.22;5070939;28;20049;-71
2022/05/06 06:04:29;;;;;;;3.60;1.60;;;;;;;9.18;100.00;97356.44;5069772;28;20502;-71
2022/05/06 06:06:56;;;;;;;4.28;1.52;;;;;;;9.29;100.00;97362.94;5067675;28;20048;-72
2022/05/06 06:09:23;;;;;;;3.00;1.23;;;;;;;9.35;100.00;97368.22;5064845;28;20074;-72
2022/05/06 06:11:54;;;;;;;5.05;1.92;;;;;;;9.41;100.00;97353.16;5066044;28;20036;-72
2022/05/06 06:14:19;;;;;;;5.55;1.52;;;;;;;9.55;100.00;97354.69;5065752;28;20059;-72
2022/05/06 06:16:45;;;;;;;5.28;1.60;;;;;;;9.64;100.00;97358.69;5068990;28;20028;-71
2022/05/06 06:19:15;;;;;;;5.05;1.50;;;;;;;9.75;100.00;97357.19;5065426;28;20036;-73
2022/05/06 06:21:44;;;;;;;2.95;1.50;;;;;;;9.85;100.00;97362.81;5065826;28;20442;-71
2022/05/06 06:24:10;;;;;;;3.90;1.70;;;;;;;9.93;100.00;97367.88;5072855;28;20143;-73
2022/05/06 06:26:37;;;;;;;4.47;1.80;;;;;;;9.98;100.00;97360.00;5067710;28;20117;-71
2022/05/06 06:29:07;;;;;;;8.07;2.15;;;;;;;10.07;100.00;97365.06;5069646;28;20414;-69
2022/05/06 06:31:34;;;;;;;5.93;2.50;;;;;;;10.13;100.00;97365.00;5073751;28;20052;-74
2022/05/06 06:34:01;;;;;;;7.07;3.00;;;;;;;10.21;100.00;97366.56;5070527;28;20094;-74
2022/05/06 06:36:32;;;;;;;5.15;2.40;;;;;;;10.27;100.00;97355.81;5069607;28;20340;-71
2022/05/06 06:38:59;;;;;;;8.68;3.25;;;;;;;10.33;100.00;97356.75;5071255;28;20048;-72
2022/05/06 06:41:27;;;;;;;7.45;2.30;;;;;;;10.45;100.00;97365.66;5068585;28;20435;-71
2022/05/06 06:43:54;;;;;;;5.93;1.85;;;;;;;10.53;100.00;97353.81;5071387;28;20040;-69
2022/05/06 06:46:28;;;;;;;5.28;2.20;;;;;;;10.65;100.00;97359.22;5058279;28;20359;-70
2022/05/06 06:49:02;;;;;;;6.22;1.75;;;;;;;10.74;100.00;97361.38;5073735;28;20127;-73
2022/05/06 06:51:48;;;;;;;6.80;1.90;;;;;;;10.83;100.00;97365.34;5070121;28;20055;-71
2022/05/06 06:54:14;;;;;;;6.53;1.77;;;;;;;10.93;100.00;97367.47;5067252;28;20048;-71
2022/05/06 06:56:40;;;;;;;3.92;1.80;;;;;;;11.03;100.00;97364.22;5072283;28;20057;-69
2022/05/06 06:59:06;;;;;;;3.80;1.95;;;;;;;11.16;100.00;97366.72;5069848;28;20131;-72
2022/05/06 07:01:33;;;;;;;4.35;1.73;;;;;;;11.24;100.00;97365.56;5074010;28;20040;-73
2022/05/06 07:04:00;;;;;;;4.32;1.40;;;;;;;11.32;100.00;97368.72;5071463;28;20058;-71
2022/05/06 07:11:55;;;;;;;3.13;1.50;;;;;;;11.67;100.00;97375.97;5069899;28;20040;-72
2022/05/06 07:14:25;;;;;;;4.20;1.50;;;;;;;11.78;100.00;97371.66;5069104;28;20036;-71
2022/05/06 07:16:51;;;;;;;3.95;1.40;;;;;;;11.80;100.00;97373.09;5069232;28;20477;-68
2022/05/06 07:19:17;;;;;;;5.30;1.55;;;;;;;11.80;100.00;97370.41;5068121;28;20082;-68
2022/05/06 07:21:42;;;;;;;3.78;1.38;;;;;;;11.82;100.00;97372.84;5069959;28;20118;-71
2022/05/06 07:24:08;;;;;;;4.07;1.60;;;;;;;11.87;100.00;97373.78;5068321;28;20544;-74
2022/05/06 07:26:34;;;;;;;3.85;1.55;;;;;;;11.93;100.00;97378.22;5068638;28;20340;-74
2022/05/06 07:28:59;;;;;;;6.13;1.55;;;;;;;12.01;100.00;97377.03;5068285;28;20400;-68
2022/05/06 07:31:25;;;;;;;2.30;1.10;;;;;;;12.06;100.00;97371.81;5068059;28;20084;-71
2022/05/06 07:33:50;;;;;;;2.90;1.33;;;;;;;12.15;100.00;97362.34;5070362;28;20063;-71
2022/05/06 07:36:16;;;;;;;3.45;1.40;;;;;;;12.22;99.95;97365.72;5065630;28;20079;-71
2022/05/06 07:38:41;;;;;;;2.95;1.40;;;;;;;12.31;99.13;97370.72;5067197;28;20058;-70
2022/05/06 07:41:07;;;;;;;4.72;1.60;;;;;;;12.36;100.00;97363.56;5069223;28;20547;-71
2022/05/06 07:43:34;;;;;;;3.20;1.35;;;;;;;12.46;100.00;97361.09;5068605;28;20040;-71
2022/05/06 07:46:00;;;;;;;4.63;1.40;;;;;;;12.54;95.81;97359.91;5068361;28;20036;-71
2022/05/06 07:48:25;;;;;;;5.10;1.88;;;;;;;12.65;96.04;97364.41;5066706;28;20029;-71
2022/05/06 07:50:51;;;;;;;4.10;1.40;;;;;;;12.70;94.79;97361.00;5068341;28;20071;-76
2022/05/06 07:53:16;;;;;;;3.55;1.30;;;;;;;12.76;100.00;97357.34;5068192;28;20066;-71
2022/05/06 07:55:42;;;;;;;6.35;1.90;;;;;;;12.88;100.00;97360.78;5070742;28;20036;-71
2022/05/06 07:58:08;;;;;;;5.22;1.40;;;;;;;12.90;94.22;97364.06;5068219;28;20044;-70
2022/05/06 08:00:34;;;;;;;4.30;1.20;;;;;;;12.86;93.74;97362.91;5069240;28;20790;-70
2022/05/06 08:05:47;;;;;;;5.15;1.23;;;;;;;13.05;92.33;97358.94;5067387;28;20526;-70
2022/05/06 08:08:13;;;;;;;5.82;1.40;;;;;;;13.28;98.22;97366.09;5068846;28;20581;-71
2022/05/06 08:10:39;;;;;;;2.53;1.23;;;;;;;13.55;94.23;97358.22;5068931;28;20051;-70
2022/05/06 08:13:06;;;;;;;3.50;1.17;;;;;;;13.65;95.23;97361.03;5069052;28;20044;-71
2022/05/06 08:15:31;;;;;;;3.63;1.27;;;;;;;13.80;100.00;97371.22;5067237;28;20048;-72
2022/05/06 08:17:59;;;;;;;4.22;1.40;;;;;;;13.93;95.19;97367.38;5070865;28;20072;-71
2022/05/06 08:20:25;;;;;;;3.72;1.10;;;;;;;13.96;86.67;97361.50;5068286;28;20789;-71
2022/05/06 08:22:50;;;;;;;3.42;1.20;;;;;;;13.99;86.94;97360.97;5066640;28;20063;-70
2022/05/06 08:25:16;;;;;;;3.47;1.20;;;;;;;14.02;82.55;97354.31;5067260;28;20305;-70
2022/05/06 08:27:44;;;;;;;4.03;1.17;;;;;;;14.32;91.00;97356.56;5067535;28;20063;-70
2022/05/06 08:30:12;;;;;;;3.90;1.20;;;;;;;14.43;91.69;97353.75;5066698;28;20028;-70
2022/05/06 08:32:38;;;;;;;2.53;0.90;;;;;;;14.60;87.39;97344.81;5069397;28;20063;-70
2022/05/06 08:35:04;;;;;;;3.35;0.80;;;;;;;14.66;85.83;97359.97;5066278;28;20048;-70
2022/05/06 08:37:43;;;;;;;4.05;0.93;;;;;;;14.68;83.18;97350.56;5070170;28;21214;-70
2022/05/06 08:40:17;;;;;;;2.40;1.10;;;;;;;14.80;99.60;97357.69;5069502;28;20498;-70
2022/05/06 08:42:43;;;;;;;2.33;1.00;;;;;;;14.94;82.70;97357.06;5069286;28;20033;-69
2022/05/06 08:50:53;;;;;;;2.20;1.05;;;;;;;15.02;82.14;97358.47;5069217;28;20554;-70
2022/05/06 08:53:23;;;;;;;3.63;1.02;;;;;;;14.92;74.10;97353.78;5069243;28;20449;-70
2022/05/06 08:55:55;;;;;;;4.95;0.90;;;;;;;14.77;91.77;97354.44;5067599;28;20035;-70
2022/05/06 08:58:22;;;;;;;3.25;1.00;;;;;;;14.68;83.18;97363.22;5068974;28;20040;-70
2022/05/06 09:00:48;;;;;;;3.15;0.80;;;;;;;14.59;77.22;97356.66;5069602;28;20044;-70
2022/05/06 09:03:15;;;;;;;3.30;0.95;;;;;;;14.58;86.44;97366.63;5070322;28;20032;-70
2022/05/06 09:05:55;;;;;;;2.63;0.80;;;;;;;14.71;79.54;97358.16;5067089;28;20123;-70
2022/05/06 09:08:21;;;;;;;2.83;1.13;;;;;;;14.77;84.51;97349.03;5067157;28;20572;-70
2022/05/06 09:11:03;;;;;;;5.78;1.00;;;;;;;14.77;70.20;97348.22;5066643;28;20038;-71
2022/05/06 09:13:32;;;;;;;3.35;1.23;;;;;;;14.72;78.68;97353.56;5067722;28;20039;-70
2022/05/06 09:19:21;;;;;;;2.22;1.00;;;;;;;14.63;72.82;97363.16;5067808;28;20127;-71
2022/05/06 09:22:03;;;;;;;3.22;1.00;;;;;;;14.93;73.98;97359.97;5041408;28;20486;-70
2022/05/06 09:24:30;;;;;;;2.97;0.90;;;;;;;15.44;85.38;97361.25;5065911;28;20098;-70
2022/05/06 09:27:08;;;;;;;4.57;0.93;;;;;;;15.79;62.12;97357.22;5066470;28;20044;-70
2022/05/06 09:29:43;;;;;;;3.10;0.98;;;;;;;16.24;71.74;97350.47;5068609;28;20155;-70
2022/05/06 09:32:28;;;;;;;3.88;1.00;;;;;;;16.57;86.66;97354.66;5066023;28;20090;-71
2022/05/06 09:35:12;;;;;;;2.83;1.00;;;;;;;16.56;63.00;97355.72;5064855;28;20071;-70
2022/05/06 09:37:42;;;;;;;3.47;1.23;;;;;;;16.92;81.62;97357.50;5066776;28;20093;-70
2022/05/06 09:40:11;;;;;;;4.43;1.33;;;;;;;17.23;64.75;97344.03;5066831;28;20127;-70
2022/05/06 09:42:42;;;;;;;3.95;1.23;;;;;;;17.53;55.84;97344.03;5066716;28;20574;-70
2022/05/06 09:45:11;;;;;;;3.53;1.10;;;;;;;18.02;77.19;97345.34;5065782;28;20055;-70
2022/05/06 09:47:38;;;;;;;2.70;0.95;;;;;;;17.99;77.44;97343.19;5067952;28;20036;-72
2022/05/06 09:50:06;;;;;;;2.08;1.00;;;;;;;17.60;73.39;97348.38;5067772;28;20614;-70
2022/05/06 09:52:31;;;;;;;3.75;1.05;;;;;;;17.91;66.51;97347.25;5065414;28;20415;-71
2022/05/06 09:54:57;;;;;;;2.30;0.93;;;;;;;17.71;56.41;97342.69;5066408;28;20114;-72
2022/05/06 09:57:23;;;;;;;3.80;1.27;;;;;;;18.23;66.81;97346.91;5065837;28;20143;-71
2022/05/06 09:59:50;;;;;;;2.90;0.88;;;;;;;18.47;71.30;97357.94;5066227;28;21189;-70
2022/05/06 10:02:17;;;;;;;4.10;1.00;;;;;;;18.87;54.16;97348.00;5061407;28;20048;-73
2022/05/06 10:04:43;;;;;;;2.03;0.95;;;;;;;19.36;52.47;97333.56;5067522;28;20097;-70
2022/05/06 10:07:16;;;;;;;4.50;1.13;;;;;;;19.02;47.87;97347.91;5066931;28;20067;-70
2022/05/06 10:09:48;;;;;;;3.03;1.00;;;;;;;18.46;63.44;97334.63;5064740;28;20532;-70
2022/05/06 10:12:17;;;;;;;3.78;0.90;;;;;;;19.14;55.70;97329.41;5066955;28;20045;-70
2022/05/06 10:14:44;;;;;;;5.97;1.00;;;;;;;19.42;49.42;97335.16;5065122;28;20032;-70
2022/05/06 10:17:09;;;;;;;4.13;1.27;;;;;;;19.71;53.67;97346.88;5064713;28;20129;-71
2022/05/06 10:19:39;;;;;;;4.97;0.77;;;;;;;19.93;50.14;97337.44;5056376;28;20033;-71
2022/05/06 10:22:05;;;;;;;4.72;1.13;;;;;;;20.00;48.57;97329.78;5067263;28;20067;-72
2022/05/06 10:24:42;;;;;;;2.67;1.10;;;;;;;19.95;44.73;97336.06;5065266;28;20298;-69
2022/05/06 10:32:25;;;;;;;4.65;0.95;;;;;;;20.27;49.58;97334.63;5068358;28;20478;-71
2022/05/06 10:33:14;;;;;;;4.82;1.05;;;;;;;20.62;43.75;97325.22;5064460;28;20057;-72
2022/05/06 10:35:44;;;;;;;5.15;1.20;;;;;;;21.07;49.24;97322.97;5063080;28;20068;-70
2022/05/06 10:38:24;;;;;;;4.07;1.00;;;;;;;20.74;37.53;97322.91;5062658;28;20036;-72
2022/05/06 10:40:54;;;;;;;2.15;0.93;;;;;;;21.19;41.55;97314.38;5064240;28;20170;-71
2022/05/06 10:43:41;;;;;;;3.45;1.02;;;;;;;21.16;36.08;97313.03;5065316;28;20129;-70
2022/05/06 10:46:09;;;;;;;3.17;1.00;;;;;;;21.50;38.66;97309.28;5061115;28;20040;-72
2022/05/06 10:48:35;;;;;;;2.47;1.05;;;;;;;21.72;40.29;97314.09;5065794;28;20064;-70
2022/05/06 10:51:27;;;;;;;3.78;0.98;;;;;;;21.81;37.01;97313.09;5064527;28;20534;-70
2022/05/06 10:53:54;;;;;;;1.45;0.63;;;;;;;21.73;38.82;97313.78;5065199;28;20435;-70
2022/05/06 10:56:19;;;;;;;3.95;1.25;;;;;;;21.55;39.68;97309.97;5065418;28;20042;-71
2022/05/06 10:58:45;;;;;;;9.23;1.27;;;;;;;21.37;38.63;97300.75;5061872;28;20040;-70
2022/05/06 11:01:24;;;;;;;5.53;1.02;;;;;;;21.73;38.29;97307.53;5061547;28;20083;-71
2022/05/06 11:03:54;;;;;;;3.10;0.95;;;;;;;22.17;39.11;97299.63;5060470;28;20036;-73
2022/05/06 11:06:23;;;;;;;4.82;1.48;;;;;;;21.65;43.11;97301.66;5064182;28;20055;-71
2022/05/06 11:08:49;;;;;;;1.80;0.75;;;;;;;20.52;47.08;97317.22;5064150;28;20036;-70
2022/05/06 11:11:19;;;;;;;2.33;1.02;;;;;;;20.12;42.45;97313.06;5062771;28;20040;-70
2022/05/06 11:13:47;;;;;;;4.45;0.90;;;;;;;20.26;42.32;97313.97;5065940;28;20098;-71
2022/05/06 11:16:17;;;;;;;1.77;0.80;;;;;;;21.45;38.35;97303.91;5068432;28;20387;-72
2022/05/06 11:18:44;;;;;;;3.10;1.00;;;;;;;20.79;40.83;97311.97;5067965;28;20040;-73
2022/05/06 11:21:31;;;;;;;3.42;1.00;;;;;;;24.67;35.90;97297.09;5066025;28;20033;-70
2022/05/06 11:23:56;;;;;;;2.53;1.10;;;;;;;29.00;25.74;97294.28;5068877;28;20139;-72
2022/05/06 11:26:23;;;;;;;1.90;0.90;;;;;;;30.46;25.88;97289.19;5064277;28;20402;-73
2022/05/06 11:29:05;;;;;;;2.55;0.90;;;;;;;31.36;22.01;97280.94;5067833;28;20113;-71
2022/05/06 11:31:32;;;;;;;3.83;1.05;;;;;;;30.85;21.42;97275.50;5066440;28;20451;-71
2022/05/06 11:34:03;;;;;;;2.97;0.90;;;;;;;32.61;23.28;97281.25;5036601;28;20460;-72
2022/05/06 11:36:29;;;;;;;2.95;0.75;;;;;;;34.26;19.18;97274.53;5066560;28;20073;-72
2022/05/06 11:38:54;;;;;;;3.05;0.80;;;;;;;33.84;20.29;97276.88;5065703;28;20036;-72
2022/05/06 11:41:20;;;;;;;2.35;0.90;;;;;;;35.87;18.24;97261.47;5069127;28;20044;-71
2022/05/06 11:43:46;;;;;;;3.30;0.90;;;;;;;37.34;16.22;97269.34;5068924;28;20031;-72
2022/05/06 11:49:01;;;;;;;2.08;0.80;;;;;;;30.92;21.80;97259.09;5066974;28;20123;-71
2022/05/06 11:51:30;;;;;;;3.20;1.15;;;;;;;27.43;26.01;97266.25;5068882;28;20622;-71
2022/05/06 11:54:00;;;;;;;3.17;1.15;;;;;;;24.59;29.34;97269.69;5066515;28;20756;-71
2022/05/06 11:56:27;;;;;;;5.60;1.45;;;;;;;23.69;31.31;97274.66;5064270;28;20386;-72
2022/05/06 11:58:56;;;;;;;3.88;1.17;;;;;;;23.83;33.19;97273.47;5064496;28;20051;-70
2022/05/06 12:01:27;;;;;;;4.53;0.90;;;;;;;23.69;32.37;97272.75;5068348;28;22132;-71
2022/05/06 12:03:53;;;;;;;4.72;1.08;;;;;;;23.54;31.87;97271.16;5066518;28;20068;-70
2022/05/06 12:06:25;;;;;;;4.00;0.95;;;;;;;23.43;34.17;97269.03;5065883;28;20076;-70
2022/05/06 12:08:51;;;;;;;3.50;1.35;;;;;;;27.08;28.59;97260.25;5069196;28;20051;-70
2022/05/06 12:11:24;;;;;;;4.75;1.20;;;;;;;32.60;23.07;97249.94;5067585;28;20413;-70
2022/05/06 12:13:50;;;;;;;2.42;1.02;;;;;;;34.50;19.90;97236.25;5068322;28;20040;-70
2022/05/06 12:16:15;;;;;;;3.20;0.80;;;;;;;35.82;19.09;97245.97;5067342;28;20248;-72
2022/05/06 12:18:53;;;;;;;4.68;1.00;;;;;;;35.48;18.53;97245.50;5071934;28;20040;-72
2022/05/06 12:21:20;;;;;;;2.33;0.82;;;;;;;36.81;17.26;97245.19;5067192;28;20040;-71
2022/05/06 12:23:51;;;;;;;3.55;1.15;;;;;;;38.82;15.48;97230.81;5067928;28;20064;-73
2022/05/06 12:26:26;;;;;;;;;;;;;;;36.42;15.38;97225.78;5067107;28;20388;-71